Terminal Aerodrome Forecast
Issued by NWS

Home | Current Version | Previous Version | Text Only | Print | Product List | Glossary On
Versions: 1 2 3 4 5 6 7 8 9 10 11 12 13 14 15 16 17 18 19 20 21 22
000
FTUS43 KSGF 200100 AAA
TAFBBG
TAF AMD
KBBG 200152Z 2002/2024 00000KT 1/4SM FG OVC002
     FM201600 VRB03KT 2SM BR OVC004
     FM201900 15005KT 4SM BR BKN007
     FM202200 VRB04KT P6SM SCT030 SCT250=

USA.gov is the U.S. government's official web portal to all federal, state and local government web resources and services.